Time;durP1;ratioP1;P1;durP2;ratioP2;P2;SDS_P1;SDS_P2;PMS_P1;PMS_P2;Temp;Humidity;BMP_temperature;BMP_pressure;BME280_temperature;BME280_humidity;BME280_pressure;Samples;Min_cycle;Max_cycle;Signal;HPM_P1;HPM_P2
2023/05/10 00:00:35;;;;;;;0.40;0.30;;;;;;;14.39;100.00;95546.25;5070839;28;20442;-62
2023/05/10 00:03:05;;;;;;;0.50;0.30;;;;;;;14.22;100.00;95552.03;5070392;28;20533;-63
2023/05/10 00:05:35;;;;;;;0.40;0.30;;;;;;;14.10;100.00;95551.66;5070486;28;20445;-63
2023/05/10 00:08:03;;;;;;;0.50;0.40;;;;;;;14.14;100.00;95551.88;5070522;28;20516;-71
2023/05/10 00:10:32;;;;;;;0.33;0.27;;;;;;;14.26;100.00;95544.25;5072738;28;20520;-63
2023/05/10 00:13:00;;;;;;;0.40;0.20;;;;;;;13.96;100.00;95548.88;5071283;28;20478;-64
2023/05/10 00:15:30;;;;;;;0.30;0.20;;;;;;;13.93;100.00;95549.47;5071689;28;20773;-64
2023/05/10 00:17:58;;;;;;;0.30;0.20;;;;;;;13.92;100.00;95550.53;5070872;28;20442;-64
2023/05/10 00:20:27;;;;;;;0.30;0.20;;;;;;;13.71;100.00;95541.16;5071705;28;20433;-64
2023/05/10 00:22:57;;;;;;;0.40;0.20;;;;;;;13.55;100.00;95542.41;5071496;28;20433;-64
2023/05/10 00:25:25;;;;;;;0.37;0.20;;;;;;;13.54;100.00;95522.19;5070867;28;20438;-64
2023/05/10 00:27:55;;;;;;;0.30;0.20;;;;;;;13.82;100.00;95517.88;5070677;28;20513;-64
2023/05/10 00:30:23;;;;;;;0.50;0.30;;;;;;;13.79;100.00;95521.09;5071018;28;20491;-64
2023/05/10 00:32:51;;;;;;;0.30;0.23;;;;;;;13.90;100.00;95534.03;5070776;28;20560;-64
2023/05/10 00:35:21;;;;;;;0.30;0.30;;;;;;;13.77;100.00;95534.72;5071410;28;20536;-64
2023/05/10 00:37:49;;;;;;;0.40;0.30;;;;;;;13.91;100.00;95535.59;5070892;28;20441;-64
2023/05/10 00:40:19;;;;;;;0.40;0.30;;;;;;;13.93;100.00;95528.16;5070929;28;20476;-64
2023/05/10 00:42:47;;;;;;;0.40;0.33;;;;;;;13.90;100.00;95534.03;5044942;28;20457;-64
2023/05/10 00:45:15;;;;;;;0.30;0.30;;;;;;;13.65;100.00;95531.66;5070908;28;20523;-65
2023/05/10 00:47:44;;;;;;;0.40;0.30;;;;;;;13.69;100.00;95538.00;5071038;28;20473;-65
2023/05/10 00:50:12;;;;;;;0.30;0.30;;;;;;;13.46;100.00;95527.34;5070878;28;20437;-65
2023/05/10 00:52:42;;;;;;;0.40;0.30;;;;;;;13.42;100.00;95527.09;5070926;28;20477;-65
2023/05/10 00:55:12;;;;;;;0.40;0.30;;;;;;;13.46;100.00;95504.16;5070794;28;20922;-65
2023/05/10 00:57:43;;;;;;;0.30;0.30;;;;;;;13.89;100.00;95527.13;5071204;28;20814;-64
2023/05/10 01:00:17;;;;;;;1.10;0.53;;;;;;;13.95;100.00;95511.88;5070944;28;20473;-65
2023/05/10 01:02:46;;;;;;;0.33;0.23;;;;;;;13.73;100.00;95523.06;5070473;28;20449;-65
2023/05/10 01:05:15;;;;;;;0.30;0.20;;;;;;;13.56;100.00;95527.25;5070805;28;20524;-65
2023/05/10 01:07:43;;;;;;;0.40;0.30;;;;;;;13.48;100.00;95536.63;5058447;28;20507;-65
2023/05/10 01:10:11;;;;;;;0.83;0.50;;;;;;;13.54;100.00;95532.84;5069979;28;20989;-65
2023/05/10 01:12:45;;;;;;;0.40;0.30;;;;;;;13.05;100.00;95501.06;5070432;28;20996;-65
2023/05/10 01:15:15;;;;;;;0.40;0.20;;;;;;;13.42;100.00;95534.28;5070733;28;20434;-65
2023/05/10 01:17:45;;;;;;;0.40;0.30;;;;;;;13.33;100.00;95528.81;5070387;28;20429;-65
2023/05/10 01:20:14;;;;;;;0.47;0.40;;;;;;;12.96;100.00;95472.66;5070478;28;20441;-65
2023/05/10 01:23:16;;;;;;;0.40;0.30;;;;;;;13.12;100.00;95528.19;5070209;28;20913;-65
2023/05/10 01:26:13;;;;;;;0.50;0.50;;;;;;;13.31;100.00;95523.72;5053719;28;20440;-65
2023/05/10 01:29:20;;;;;;;0.60;0.60;;;;;;;13.17;100.00;95525.47;5070363;28;20449;-65
2023/05/10 01:32:16;;;;;;;0.33;0.30;;;;;;;13.22;100.00;95522.78;5045231;28;20437;-66
2023/05/10 01:34:54;;;;;;;0.50;0.50;;;;;;;13.43;100.00;95518.06;5046243;28;21045;-66
2023/05/10 01:37:29;;;;;;;0.50;0.30;;;;;;;13.22;100.00;95514.78;5070314;28;20810;-66
2023/05/10 01:40:03;;;;;;;0.67;0.53;;;;;;;13.21;100.00;95517.72;5070441;28;20437;-65
2023/05/10 01:42:40;;;;;;;0.30;0.20;;;;;;;13.09;100.00;95511.97;5073368;28;20534;-66
2023/05/10 01:45:16;;;;;;;0.40;0.30;;;;;;;13.17;100.00;95514.03;5074235;28;20528;-66
2023/05/10 01:47:51;;;;;;;0.33;0.20;;;;;;;13.01;100.00;95501.88;5074131;28;20477;-66
2023/05/10 01:50:23;;;;;;;0.33;0.20;;;;;;;13.15;100.00;95516.19;5073511;28;20451;-66
2023/05/10 01:52:55;;;;;;;0.40;0.30;;;;;;;13.28;100.00;95516.31;5073334;28;20495;-66
2023/05/10 01:55:28;;;;;;;0.40;0.30;;;;;;;13.19;100.00;95511.88;5073416;28;20969;-66
2023/05/10 01:58:02;;;;;;;1.63;0.60;;;;;;;13.14;100.00;95514.59;5073721;28;20434;-66
2023/05/10 02:00:31;;;;;;;0.40;0.40;;;;;;;13.05;100.00;95502.94;5073695;28;20440;-66
2023/05/10 02:03:03;;;;;;;0.40;0.30;;;;;;;13.07;100.00;95516.78;5073433;28;20442;-66
2023/05/10 02:05:34;;;;;;;0.40;0.20;;;;;;;13.13;100.00;95513.00;5073586;28;20938;-65
2023/05/10 02:08:06;;;;;;;0.30;0.20;;;;;;;13.35;100.00;95516.00;5073412;28;20488;-65
2023/05/10 02:10:36;;;;;;;0.40;0.30;;;;;;;13.40;100.00;95513.28;5073868;28;20488;-66
2023/05/10 02:13:07;;;;;;;0.40;0.30;;;;;;;13.38;100.00;95511.97;5072753;28;20568;-65
2023/05/10 02:15:36;;;;;;;0.30;0.20;;;;;;;13.34;100.00;95514.41;5073536;28;20461;-66
2023/05/10 02:18:07;;;;;;;0.40;0.30;;;;;;;13.38;100.00;95511.97;5073177;28;20472;-66
2023/05/10 02:20:36;;;;;;;0.30;0.20;;;;;;;13.62;100.00;95508.25;5072893;28;20470;-66
2023/05/10 02:23:06;;;;;;;0.40;0.30;;;;;;;13.66;100.00;95503.94;5070962;28;20442;-65
2023/05/10 02:25:35;;;;;;;0.30;0.20;;;;;;;13.56;100.00;95505.94;5073644;28;20741;-65
2023/05/10 02:28:06;;;;;;;0.40;0.30;;;;;;;13.41;100.00;95508.75;5073116;28;20465;-65
2023/05/10 02:30:35;;;;;;;0.40;0.30;;;;;;;13.40;100.00;95509.81;5072073;28;20922;-65
2023/05/10 02:33:07;;;;;;;0.40;0.30;;;;;;;13.33;100.00;95507.50;5073446;28;20530;-65
2023/05/10 02:35:36;;;;;;;0.40;0.30;;;;;;;13.35;100.00;95500.81;5072777;28;20545;-65
2023/05/10 02:38:07;;;;;;;0.30;0.23;;;;;;;13.34;100.00;95504.53;5073298;28;20484;-65
2023/05/10 02:40:37;;;;;;;0.40;0.30;;;;;;;13.51;100.00;95500.66;5072660;28;20463;-65
2023/05/10 02:43:10;;;;;;;0.30;0.20;;;;;;;13.59;100.00;95497.34;5072696;28;20442;-66
2023/05/10 02:45:39;;;;;;;0.37;0.30;;;;;;;13.64;100.00;95499.97;5072638;28;20972;-65
2023/05/10 02:48:09;;;;;;;0.30;0.20;;;;;;;13.57;100.00;95492.31;5073027;28;20531;-66
2023/05/10 02:50:42;;;;;;;0.30;0.20;;;;;;;13.59;100.00;95489.38;5072623;28;20437;-65
2023/05/10 02:53:12;;;;;;;0.40;0.30;;;;;;;13.77;100.00;95486.75;5072600;28;20535;-66
2023/05/10 02:55:44;;;;;;;0.50;0.30;;;;;;;13.77;100.00;95494.75;5073148;28;20434;-65
2023/05/10 02:58:12;;;;;;;0.40;0.30;;;;;;;13.58;100.00;95498.44;5072449;28;20448;-66
2023/05/10 03:00:40;;;;;;;0.40;0.30;;;;;;;13.55;100.00;95499.81;5072679;28;20434;-66
2023/05/10 03:03:10;;;;;;;0.53;0.30;;;;;;;13.40;100.00;95491.19;5072516;28;20437;-66
2023/05/10 03:05:38;;;;;;;0.67;0.67;;;;;;;13.50;100.00;95499.06;5072305;28;20957;-66
2023/05/10 03:08:07;;;;;;;0.40;0.30;;;;;;;13.71;100.00;95509.19;5071861;28;20441;-66
2023/05/10 03:10:42;;;;;;;0.57;0.40;;;;;;;13.63;100.00;95507.19;5072016;28;20528;-64
2023/05/10 03:13:27;;;;;;;0.40;0.30;;;;;;;13.81;100.00;95497.66;5072087;28;20437;-64
2023/05/10 03:16:02;;;;;;;0.40;0.30;;;;;;;13.58;100.00;95522.41;5071882;28;20476;-64
2023/05/10 03:18:38;;;;;;;0.30;0.20;;;;;;;13.74;100.00;95508.63;5071780;28;20437;-64
2023/05/10 03:21:12;;;;;;;0.30;0.20;;;;;;;13.93;100.00;95514.81;5071799;28;20472;-64
2023/05/10 03:23:44;;;;;;;0.30;0.30;;;;;;;13.93;100.00;95514.81;5071580;28;20810;-64
2023/05/10 03:26:18;;;;;;;0.30;0.20;;;;;;;13.61;100.00;95477.34;5071395;28;20990;-64
2023/05/10 03:28:49;;;;;;;0.37;0.20;;;;;;;13.63;100.00;95512.50;5072226;28;20524;-64
2023/05/10 03:31:18;;;;;;;0.50;0.30;;;;;;;13.73;100.00;95512.41;5072066;28;20441;-64
2023/05/10 03:33:52;;;;;;;0.40;0.30;;;;;;;13.93;100.00;95512.16;5071433;28;20465;-64
2023/05/10 03:36:20;;;;;;;0.40;0.30;;;;;;;13.83;100.00;95506.94;5071453;28;20496;-64
2023/05/10 03:38:49;;;;;;;1.37;0.30;;;;;;;13.60;100.00;95512.28;5071425;28;20517;-64
2023/05/10 03:41:17;;;;;;;0.40;0.20;;;;;;;13.39;100.00;95506.34;5071118;28;21021;-64
2023/05/10 03:43:45;;;;;;;0.30;0.30;;;;;;;13.32;100.00;95511.22;5071230;28;20524;-64
2023/05/10 03:46:14;;;;;;;1.40;0.67;;;;;;;13.49;100.00;95521.44;5071207;28;20442;-66
2023/05/10 03:48:42;;;;;;;0.40;0.30;;;;;;;13.61;100.00;95513.88;5070792;28;20442;-64
2023/05/10 03:51:12;;;;;;;0.30;0.20;;;;;;;13.93;100.00;95519.34;5071965;28;20520;-64
2023/05/10 03:53:40;;;;;;;0.30;0.20;;;;;;;13.86;100.00;95524.25;5070840;28;20553;-64
2023/05/10 03:56:08;;;;;;;0.40;0.30;;;;;;;13.91;100.00;95524.19;5071749;28;20444;-64
2023/05/10 03:58:37;;;;;;;0.30;0.20;;;;;;;13.88;100.00;95528.22;5071240;28;20494;-63
2023/05/10 04:01:06;;;;;;;0.30;0.20;;;;;;;13.84;100.00;95532.50;5071522;28;20477;-63
2023/05/10 04:03:36;;;;;;;0.43;0.37;;;;;;;13.56;100.00;95528.00;5070646;28;20538;-63
2023/05/10 04:06:06;;;;;;;0.60;0.60;;;;;;;13.29;100.00;95538.41;5071635;28;20494;-63
2023/05/10 04:08:36;;;;;;;0.50;0.30;;;;;;;13.42;100.00;95537.75;5071085;28;20442;-63
2023/05/10 04:11:09;;;;;;;0.80;0.50;;;;;;;13.31;100.00;95470.50;5071393;28;20961;-63
2023/05/10 04:13:39;;;;;;;0.70;0.47;;;;;;;13.63;100.00;95528.50;5071276;28;20563;-62
2023/05/10 04:16:07;;;;;;;0.40;0.37;;;;;;;13.40;100.00;95539.09;5071024;28;20444;-63
2023/05/10 04:18:35;;;;;;;1.07;0.40;;;;;;;13.45;100.00;95537.19;5071025;28;20441;-62
2023/05/10 04:21:04;;;;;;;0.33;0.27;;;;;;;13.42;100.00;95542.28;5070636;28;20433;-63
2023/05/10 04:23:32;;;;;;;0.50;0.40;;;;;;;13.24;100.00;95506.50;5070378;28;20536;-63
2023/05/10 04:26:05;;;;;;;0.30;0.30;;;;;;;13.63;100.00;95541.00;5070340;28;20528;-63
2023/05/10 04:28:33;;;;;;;0.30;0.20;;;;;;;13.56;100.00;95538.66;5071205;28;20663;-63
2023/05/10 04:31:03;;;;;;;0.40;0.30;;;;;;;13.75;100.00;95538.75;5071173;28;20442;-63
2023/05/10 04:33:31;;;;;;;0.30;0.20;;;;;;;13.85;100.00;95523.44;5071004;28;20478;-63
2023/05/10 04:36:00;;;;;;;0.30;0.30;;;;;;;13.58;100.00;95538.41;5070550;28;20473;-63
2023/05/10 04:38:30;;;;;;;0.47;0.47;;;;;;;13.30;100.00;95537.34;5071633;28;20472;-63
2023/05/10 04:41:07;;;;;;;0.40;0.30;;;;;;;13.29;100.00;95541.06;5071889;28;20947;-64
2023/05/10 04:43:36;;;;;;;0.60;0.50;;;;;;;12.96;100.00;95523.22;5071057;28;20488;-63
2023/05/10 04:46:04;;;;;;;1.17;0.50;;;;;;;12.94;100.00;95534.16;5071049;28;20449;-64
2023/05/10 04:48:33;;;;;;;1.43;0.50;;;;;;;13.24;100.00;95541.09;5070558;28;20475;-65
2023/05/10 04:51:03;;;;;;;0.57;0.57;;;;;;;13.39;100.00;95522.34;5070468;28;20433;-64
2023/05/10 04:53:32;;;;;;;0.50;0.50;;;;;;;13.45;100.00;95525.75;5070216;28;20433;-64
2023/05/10 04:56:00;;;;;;;4.17;0.73;;;;;;;13.43;100.00;95536.69;5070244;28;20508;-64
2023/05/10 04:58:30;;;;;;;0.60;0.50;;;;;;;12.98;100.00;95539.72;5070801;28;20434;-65
2023/05/10 05:00:58;;;;;;;0.57;0.57;;;;;;;12.71;100.00;95543.63;5070490;28;20445;-65
2023/05/10 05:03:26;;;;;;;0.47;0.30;;;;;;;12.67;100.00;95545.22;5070439;28;20441;-65
2023/05/10 05:05:55;;;;;;;0.43;0.43;;;;;;;13.16;100.00;95544.38;5071000;28;20552;-64
2023/05/10 05:08:23;;;;;;;0.40;0.30;;;;;;;13.55;100.00;95537.09;5070243;28;20465;-64
2023/05/10 05:10:52;;;;;;;0.43;0.30;;;;;;;13.87;100.00;95545.25;5070428;28;20473;-64
2023/05/10 05:13:20;;;;;;;0.37;0.30;;;;;;;13.35;100.00;95553.25;5070176;28;20532;-63
2023/05/10 05:15:50;;;;;;;0.40;0.30;;;;;;;13.32;100.00;95538.66;5070754;28;20480;-64
2023/05/10 05:18:18;;;;;;;0.73;0.53;;;;;;;13.51;100.00;95552.03;5073859;28;20506;-63
2023/05/10 05:20:47;;;;;;;0.30;0.20;;;;;;;13.52;100.00;95550.97;5074502;28;20452;-63
2023/05/10 05:23:15;;;;;;;0.80;0.80;;;;;;;13.40;100.00;95558.53;5073903;28;20957;-63
2023/05/10 05:25:43;;;;;;;0.30;0.20;;;;;;;13.64;100.00;95556.69;5073903;28;20582;-63
2023/05/10 05:28:12;;;;;;;0.40;0.40;;;;;;;13.56;100.00;95543.97;5074386;28;20789;-64
2023/05/10 05:30:40;;;;;;;0.40;0.30;;;;;;;13.46;100.00;95562.72;5073998;28;21036;-63
2023/05/10 05:33:09;;;;;;;0.30;0.30;;;;;;;13.65;100.00;95558.28;5074049;28;20831;-63
2023/05/10 05:35:38;;;;;;;0.37;0.30;;;;;;;13.36;100.00;95560.97;5074173;28;20476;-63
2023/05/10 05:38:06;;;;;;;0.50;0.30;;;;;;;13.46;100.00;95548.66;5074605;28;20449;-64
2023/05/10 05:40:35;;;;;;;0.60;0.30;;;;;;;13.66;100.00;95565.19;5073286;28;20445;-63
2023/05/10 05:43:03;;;;;;;0.40;0.30;;;;;;;13.64;100.00;95566.53;5074154;28;21068;-62
2023/05/10 05:45:31;;;;;;;0.40;0.30;;;;;;;13.52;100.00;95553.63;5060871;28;20465;-62
2023/05/10 05:47:59;;;;;;;0.50;0.50;;;;;;;13.04;100.00;95494.16;5074013;28;20441;-62
2023/05/10 05:50:29;;;;;;;8.97;0.93;;;;;;;13.27;100.00;95541.34;5073724;28;20541;-62
2023/05/10 05:52:58;;;;;;;0.53;0.50;;;;;;;13.44;100.00;95564.88;5073809;28;20445;-61
2023/05/10 05:55:26;;;;;;;0.50;0.30;;;;;;;13.44;100.00;95562.22;5073630;28;21020;-62
2023/05/10 05:57:55;;;;;;;0.50;0.40;;;;;;;13.90;100.00;95563.34;5073721;28;20477;-61
2023/05/10 06:00:23;;;;;;;0.40;0.30;;;;;;;13.70;100.00;95566.22;5073835;28;20438;-61
2023/05/10 06:02:51;;;;;;;0.50;0.50;;;;;;;13.38;100.00;95563.34;5073876;28;20524;-61
2023/05/10 06:05:21;;;;;;;0.50;0.30;;;;;;;13.59;100.00;95567.41;5073642;28;20461;-61
2023/05/10 06:07:50;;;;;;;0.40;0.37;;;;;;;13.95;100.00;95552.63;5073587;28;20528;-61
2023/05/10 06:10:19;;;;;;;0.50;0.40;;;;;;;13.56;100.00;95575.19;5048001;28;20801;-61
2023/05/10 06:12:47;;;;;;;0.40;0.30;;;;;;;13.67;100.00;95580.09;5073724;28;20528;-61
2023/05/10 06:15:16;;;;;;;0.50;0.40;;;;;;;13.94;100.00;95577.69;5073541;28;20981;-61
2023/05/10 06:17:45;;;;;;;0.50;0.50;;;;;;;14.13;100.00;95571.63;5072273;28;20529;-62
2023/05/10 06:20:14;;;;;;;0.40;0.30;;;;;;;14.52;100.00;95567.66;5073777;28;20450;-62
2023/05/10 06:22:42;;;;;;;0.30;0.20;;;;;;;14.42;100.00;95524.34;5072972;28;20545;-62
2023/05/10 06:25:14;;;;;;;0.40;0.30;;;;;;;14.48;100.00;95576.53;5073331;28;20441;-63
2023/05/10 06:27:42;;;;;;;0.60;0.50;;;;;;;14.20;100.00;95578.19;5071775;28;20844;-63
2023/05/10 06:30:15;;;;;;;0.53;0.53;;;;;;;14.39;100.00;95588.94;5073360;28;20504;-63
2023/05/10 06:32:44;;;;;;;0.40;0.30;;;;;;;14.48;100.00;95573.88;5072593;28;20521;-62
2023/05/10 06:35:13;;;;;;;0.47;0.40;;;;;;;14.85;100.00;95581.09;5073353;28;20473;-63
2023/05/10 06:37:42;;;;;;;0.40;0.30;;;;;;;15.19;100.00;95577.09;5072966;28;20438;-64
2023/05/10 06:40:12;;;;;;;1.23;0.70;;;;;;;15.25;100.00;95580.47;5073438;28;20434;-64
2023/05/10 06:42:40;;;;;;;0.70;0.70;;;;;;;15.40;100.00;95587.44;5072598;28;20444;-64
2023/05/10 06:45:10;;;;;;;0.40;0.30;;;;;;;14.86;100.00;95578.13;5073042;28;20472;-64
2023/05/10 06:47:38;;;;;;;0.40;0.40;;;;;;;14.85;100.00;95581.09;5072779;28;20960;-64
2023/05/10 06:50:08;;;;;;;0.40;0.30;;;;;;;15.19;100.00;95585.09;5072461;28;20965;-64
2023/05/10 06:52:36;;;;;;;0.50;0.40;;;;;;;15.47;100.00;95585.22;5072672;28;20521;-65
2023/05/10 06:55:06;;;;;;;0.50;0.50;;;;;;;15.49;100.00;95588.38;5072570;28;20434;-64
2023/05/10 06:57:36;;;;;;;0.30;0.20;;;;;;;15.41;100.00;95586.34;5074511;28;20437;-65
2023/05/10 07:00:05;;;;;;;0.60;0.40;;;;;;;15.02;100.00;95592.06;5072494;28;20521;-65
2023/05/10 07:02:33;;;;;;;0.70;0.50;;;;;;;14.49;100.00;95538.91;5072623;28;20442;-65
2023/05/10 07:05:02;;;;;;;0.70;0.70;;;;;;;14.78;100.00;95586.00;5072137;28;20866;-65
2023/05/10 07:07:31;;;;;;;0.50;0.50;;;;;;;14.78;100.00;95594.78;5072487;28;20891;-64
2023/05/10 07:09:59;;;;;;;0.40;0.30;;;;;;;14.39;100.00;95552.41;5072000;28;20466;-64
2023/05/10 07:12:27;;;;;;;2.20;0.60;;;;;;;14.75;100.00;95592.69;5072271;28;20491;-65
2023/05/10 07:14:57;;;;;;;0.83;0.30;;;;;;;14.77;100.00;95590.56;5071704;28;20442;-64
2023/05/10 07:17:25;;;;;;;0.37;0.30;;;;;;;14.64;100.00;95599.28;5072157;28;20487;-64
2023/05/10 07:19:54;;;;;;;0.30;0.20;;;;;;;14.49;100.00;95596.81;5071554;28;20949;-66
2023/05/10 07:22:22;;;;;;;0.50;0.40;;;;;;;14.55;100.00;95595.63;5071802;28;20856;-64
2023/05/10 07:24:50;;;;;;;0.50;0.50;;;;;;;14.86;100.00;95591.47;5045510;28;20442;-64
2023/05/10 07:27:19;;;;;;;0.40;0.30;;;;;;;15.21;100.00;95601.63;5071321;28;21016;-63
2023/05/10 07:29:47;;;;;;;0.40;0.27;;;;;;;15.70;100.00;95598.44;5072428;28;20543;-63
2023/05/10 07:32:17;;;;;;;1.60;1.50;;;;;;;15.58;100.00;95610.69;5071851;28;20917;-64
2023/05/10 07:34:48;;;;;;;0.67;0.63;;;;;;;15.70;100.00;95601.13;5071895;28;20544;-63
2023/05/10 07:37:16;;;;;;;0.93;0.30;;;;;;;15.36;100.00;95613.13;5071108;28;20492;-63
2023/05/10 07:39:44;;;;;;;0.50;0.50;;;;;;;15.61;100.00;95599.41;5071053;28;20445;-63
2023/05/10 07:42:13;;;;;;;0.40;0.40;;;;;;;16.00;100.00;95607.78;5071369;28;20997;-63
2023/05/10 07:44:41;;;;;;;0.37;0.30;;;;;;;15.39;100.00;95565.28;5071672;28;20433;-63
2023/05/10 07:47:09;;;;;;;1.50;0.60;;;;;;;15.87;99.67;95601.34;5071260;28;20453;-63
2023/05/10 07:49:39;;;;;;;0.40;0.30;;;;;;;16.16;95.79;95611.78;5071661;28;20475;-63
2023/05/10 07:52:08;;;;;;;0.40;0.40;;;;;;;16.22;97.22;95609.75;5071923;28;20445;-64
2023/05/10 07:54:36;;;;;;;0.40;0.30;;;;;;;15.63;96.96;95613.28;5071885;28;20521;-64
2023/05/10 07:57:04;;;;;;;0.30;0.20;;;;;;;15.34;98.80;95615.31;5071539;28;20977;-68
2023/05/10 07:59:33;;;;;;;3.10;0.40;;;;;;;15.50;100.00;95614.81;5071609;28;20455;-63
2023/05/10 08:02:01;;;;;;;0.50;0.30;;;;;;;15.73;99.46;95568.47;5071825;28;20524;-67
2023/05/10 08:04:30;;;;;;;0.50;0.30;;;;;;;16.43;97.54;95616.31;5071350;28;20937;-63
2023/05/10 08:07:00;;;;;;;0.40;0.30;;;;;;;16.45;99.32;95616.78;5071149;28;20491;-63
2023/05/10 08:09:28;;;;;;;0.63;0.63;;;;;;;15.61;100.00;95610.88;5071146;28;20441;-63
2023/05/10 08:11:56;;;;;;;0.80;0.50;;;;;;;15.09;100.00;95571.91;5071244;28;20480;-63
2023/05/10 08:14:25;;;;;;;0.37;0.27;;;;;;;15.16;100.00;95616.91;5071352;28;20445;-63
2023/05/10 08:16:53;;;;;;;0.40;0.30;;;;;;;15.05;100.00;95620.84;5070984;28;20488;-62
2023/05/10 08:19:21;;;;;;;0.60;0.33;;;;;;;14.82;100.00;95614.50;5070425;28;20944;-62
2023/05/10 08:21:50;;;;;;;0.30;0.30;;;;;;;14.73;100.00;95626.06;5070484;28;20560;-63
2023/05/10 08:24:19;;;;;;;0.37;0.30;;;;;;;15.04;100.00;95628.06;5069961;28;20444;-63
2023/05/10 08:26:48;;;;;;;0.40;0.30;;;;;;;15.38;100.00;95630.47;5070268;28;20509;-63
2023/05/10 08:29:16;;;;;;;0.63;0.63;;;;;;;15.12;100.00;95631.94;5070457;28;20540;-63
2023/05/10 08:31:45;;;;;;;0.37;0.27;;;;;;;14.67;100.00;95636.03;5070918;28;20436;-63
2023/05/10 08:34:13;;;;;;;0.47;0.40;;;;;;;15.23;100.00;95634.16;5069930;28;20430;-63
2023/05/10 08:36:41;;;;;;;0.40;0.30;;;;;;;15.89;100.00;95633.91;5070763;28;20468;-63
2023/05/10 08:39:10;;;;;;;2.30;0.50;;;;;;;15.93;100.00;95636.78;5070246;28;20474;-64
2023/05/10 08:42:04;;;;;;;0.60;0.50;;;;;;;16.31;100.00;95635.53;5070867;28;20600;-64
2023/05/10 08:44:35;;;;;;;0.87;0.50;;;;;;;16.34;99.87;95634.94;5070661;28;20946;-64
2023/05/10 08:47:06;;;;;;;0.47;0.40;;;;;;;15.73;100.00;95607.75;5070671;28;20491;-64
2023/05/10 08:49:35;;;;;;;2.30;0.50;;;;;;;15.96;100.00;95632.75;5070869;28;20479;-65
2023/05/10 08:52:05;;;;;;;0.40;0.33;;;;;;;17.10;96.07;95634.16;5073498;28;20813;-64
2023/05/10 08:54:34;;;;;;;1.47;1.40;;;;;;;17.77;91.86;95613.56;5075260;28;20475;-64
2023/05/10 08:57:04;;;;;;;0.40;0.30;;;;;;;17.74;88.83;95614.16;5074934;28;20514;-62
2023/05/10 08:59:33;;;;;;;0.40;0.30;;;;;;;16.69;79.87;95616.63;5075236;28;20437;-63
2023/05/10 09:02:02;;;;;;;0.40;0.40;;;;;;;17.03;78.47;95619.59;5074413;28;21007;-62
2023/05/10 09:04:31;;;;;;;0.37;0.30;;;;;;;17.06;73.61;95619.81;5073754;28;20449;-64
2023/05/10 09:07:00;;;;;;;0.40;0.30;;;;;;;17.98;68.97;95619.19;5073556;28;20856;-64
2023/05/10 09:09:29;;;;;;;0.50;0.40;;;;;;;17.67;67.40;95613.81;5074371;28;20864;-64
2023/05/10 09:11:58;;;;;;;0.40;0.30;;;;;;;17.87;70.47;95615.19;5074676;28;20477;-65
2023/05/10 09:14:28;;;;;;;0.40;0.30;;;;;;;17.88;72.08;95613.31;5075812;28;20438;-65
2023/05/10 09:16:57;;;;;;;0.60;0.30;;;;;;;17.22;74.05;95616.78;5074185;28;20477;-65
2023/05/10 09:19:25;;;;;;;0.40;0.30;;;;;;;17.37;78.25;95614.53;5074387;28;20445;-65
2023/05/10 09:21:54;;;;;;;0.40;0.30;;;;;;;17.25;75.43;95616.16;5074608;28;20442;-66
2023/05/10 09:24:27;;;;;;;0.40;0.20;;;;;;;17.45;75.70;95596.94;5074366;28;20442;-65
2023/05/10 09:26:58;;;;;;;0.40;0.30;;;;;;;17.32;73.47;95613.84;5074028;28;20565;-66
2023/05/10 09:29:39;;;;;;;0.40;0.30;;;;;;;17.87;74.23;95607.16;5073601;28;20465;-66
2023/05/10 09:32:07;;;;;;;0.30;0.20;;;;;;;18.09;72.05;95606.31;5073787;28;20449;-68
2023/05/10 09:34:39;;;;;;;1.17;1.17;;;;;;;18.05;71.93;95602.66;5074656;28;20448;-69
2023/05/10 09:37:08;;;;;;;0.37;0.30;;;;;;;18.25;72.79;95599.41;5072942;28;20483;-67
2023/05/10 09:39:37;;;;;;;0.40;0.30;;;;;;;18.34;74.69;95590.28;5073946;28;20934;-68
2023/05/10 09:42:07;;;;;;;0.60;0.60;;;;;;;18.48;70.27;95587.53;5073975;28;20879;-68
2023/05/10 09:44:37;;;;;;;0.40;0.30;;;;;;;18.56;70.20;95597.50;5074439;28;20437;-68
2023/05/10 09:47:06;;;;;;;0.40;0.33;;;;;;;17.98;73.20;95595.06;5073701;28;20453;-68
2023/05/10 09:49:35;;;;;;;0.40;0.20;;;;;;;17.83;70.94;95589.31;5073904;28;20437;-68
2023/05/10 09:52:04;;;;;;;0.53;0.53;;;;;;;18.42;69.90;95589.53;5073431;28;20437;-69
2023/05/10 09:54:33;;;;;;;0.40;0.30;;;;;;;17.51;68.81;95513.41;5073710;28;20918;-69
2023/05/10 09:57:02;;;;;;;0.40;0.40;;;;;;;18.02;69.69;95589.84;5073190;28;20973;-69
2023/05/10 10:02:20;;;;;;;0.40;0.30;;;;;;;17.79;72.01;95575.72;5072858;28;20962;-69
2023/05/10 10:04:52;;;;;;;0.40;0.30;;;;;;;18.23;68.65;95586.34;5073824;28;20442;-70
2023/05/10 10:07:42;;;;;;;0.37;0.30;;;;;;;18.50;68.42;95577.28;5074122;28;20856;-69
2023/05/10 10:10:12;;;;;;;0.30;0.20;;;;;;;18.41;69.70;95560.34;5073262;28;20960;-69
2023/05/10 10:12:42;;;;;;;0.40;0.30;;;;;;;18.08;68.30;95534.97;5065972;28;20443;-68
2023/05/10 10:15:11;;;;;;;0.40;0.33;;;;;;;17.89;66.97;95513.75;5048026;28;20430;-69
2023/05/10 10:17:44;;;;;;;0.40;0.30;;;;;;;17.51;69.93;95502.69;5073619;28;21067;-68
2023/05/10 10:20:13;;;;;;;0.70;0.70;;;;;;;18.34;68.93;95552.72;5073637;28;20498;-69
2023/05/10 10:22:43;;;;;;;0.30;0.20;;;;;;;18.48;68.31;95565.25;5073363;28;20473;-69
2023/05/10 10:25:13;;;;;;;0.30;0.20;;;;;;;18.37;68.87;95559.38;5073619;28;20473;-68
2023/05/10 10:27:50;;;;;;;0.40;0.30;;;;;;;17.90;66.69;95485.88;5072658;28;20461;-68
2023/05/10 10:30:27;;;;;;;0.50;0.30;;;;;;;18.34;62.58;95568.81;5073732;28;20788;-69
2023/05/10 10:33:28;;;;;;;0.40;0.30;;;;;;;18.22;63.29;95555.22;5073596;28;20464;-68
2023/05/10 10:35:59;;;;;;;0.30;0.20;;;;;;;18.05;64.00;95557.06;5072423;28;20933;-66
2023/05/10 10:38:37;;;;;;;0.30;0.30;;;;;;;18.04;67.95;95520.59;5073098;28;20956;-65
2023/05/10 10:41:11;;;;;;;0.30;0.20;;;;;;;18.64;66.88;95561.84;5072878;28;20434;-65
2023/05/10 10:43:40;;;;;;;1.50;0.67;;;;;;;18.65;63.75;95546.50;5072530;28;20448;-64
2023/05/10 10:46:15;;;;;;;0.40;0.30;;;;;;;19.02;68.24;95538.63;5073064;28;20495;-64
2023/05/10 10:48:49;;;;;;;0.40;0.30;;;;;;;19.17;66.68;95550.00;5072687;28;20515;-63
2023/05/10 10:51:18;;;;;;;0.50;0.30;;;;;;;19.39;62.42;95556.00;5073024;28;20443;-63
2023/05/10 10:53:49;;;;;;;0.40;0.30;;;;;;;18.94;59.64;95507.19;5072440;28;20836;-63
2023/05/10 10:56:24;;;;;;;0.40;0.30;;;;;;;18.93;58.41;95403.53;5072852;28;20440;-63
2023/05/10 10:58:53;;;;;;;0.40;0.30;;;;;;;19.83;59.67;95557.50;5071971;28;20500;-62
2023/05/10 11:01:22;;;;;;;0.40;0.30;;;;;;;19.06;61.92;95524.56;5072727;28;20472;-62
2023/05/10 11:04:20;;;;;;;0.40;0.40;;;;;;;18.93;57.73;95531.66;5072314;28;20437;-63
2023/05/10 11:06:48;;;;;;;0.70;0.40;;;;;;;18.17;57.84;95515.13;5072351;28;20429;-63
2023/05/10 11:09:17;;;;;;;0.30;0.20;;;;;;;18.67;57.65;95550.44;5072411;28;20504;-62
2023/05/10 11:11:54;;;;;;;0.40;0.30;;;;;;;18.65;58.23;95520.44;5072243;28;20438;-63
2023/05/10 11:14:23;;;;;;;0.40;0.30;;;;;;;18.58;58.28;95546.97;5072135;28;20441;-62
2023/05/10 11:16:52;;;;;;;0.40;0.30;;;;;;;18.76;59.31;95537.03;5072433;28;20488;-62
2023/05/10 11:19:22;;;;;;;0.57;0.57;;;;;;;19.83;60.93;95541.38;5071435;28;20480;-61
2023/05/10 11:21:53;;;;;;;0.30;0.20;;;;;;;19.89;55.30;95541.94;5072258;28;20472;-61
2023/05/10 11:24:24;;;;;;;0.30;0.20;;;;;;;20.09;54.25;95542.03;5072158;28;20437;-62
2023/05/10 11:26:52;;;;;;;0.40;0.30;;;;;;;19.44;54.33;95537.03;5071055;28;20929;-62
2023/05/10 11:29:21;;;;;;;0.40;0.30;;;;;;;19.46;56.59;95534.81;5071821;28;20441;-63
2023/05/10 11:31:50;;;;;;;0.30;0.20;;;;;;;19.83;60.90;95533.28;5071791;28;20818;-54
2023/05/10 11:34:27;;;;;;;0.40;0.20;;;;;;;20.01;60.80;95524.03;5071587;28;20524;-54
2023/05/10 11:36:56;;;;;;;0.30;0.20;;;;;;;19.67;57.46;95427.34;5071988;28;20433;-54
2023/05/10 11:39:27;;;;;;;0.43;0.30;;;;;;;20.02;59.59;95531.00;5071465;28;21017;-54
2023/05/10 11:41:57;;;;;;;0.43;0.30;;;;;;;19.98;59.81;95540.03;5071652;28;20441;-54
2023/05/10 11:44:31;;;;;;;0.43;0.40;;;;;;;19.68;63.39;95493.47;5071484;28;20477;-54